aviador You're here:

KCOU Decoded Metar

COLUMBIA in MO, USA
Report Time2017-12-16 17:54:00
UTC Time2017-12-16 18:48:59
Flight Rules vfr VFR
Wind210° at 14 kt
W.Decomp.*RWY 20: 13.9 kt HW 1.7 kt RCW
RWY 13: 3.1 kt HW 13.6 kt RCW
W.Rank210° ranks 18
Current wind is above 210° avg. (9.5)
Visibility9999 m
Phenomena:N/A
Clouds:N/A
Expected CloudBase > 6,800 ft AGL from Temp-Dew spread
CeilingNone
Temp14°C (ISA +1)
Dew Point-3°C (31% RH)
AAT6.6°C
QNH1014 hPa
Density Alt1,017 ft
Elevation889 ft
Report Wrong Elevation
Raw Report
KCOU 161754Z 21014KT 10SM CLR 14/M03 A2995 RMK AO2 SLP142
T01391033 10139 20000 58005 $=

Extra information for KCOU:More info

Metar Taf Metar & Taf Last 4 Metars F.Rules Stats Wind Profile Meteogram Temp Stats Airport Information Weather charts Add Link Nearby VenuesMetar ALERT Operation Metar Decoded Social comments

AIRNAV info for KCOU